createdAt,value
2022-11-07T00:00:16.269Z,11.00
2022-11-07T00:04:18.011Z,10.90
2022-11-07T00:08:19.650Z,10.90
2022-11-07T00:12:21.380Z,10.90
2022-11-07T00:16:23.018Z,10.90
2022-11-07T00:20:24.626Z,10.90
2022-11-07T00:24:26.209Z,11.00
2022-11-07T00:28:27.812Z,11.00
2022-11-07T00:32:29.457Z,11.00
2022-11-07T00:36:31.109Z,11.00
2022-11-07T00:40:32.828Z,11.10
2022-11-07T00:44:34.449Z,11.10
2022-11-07T00:48:36.860Z,11.20
2022-11-07T00:52:38.511Z,11.10
2022-11-07T00:56:40.154Z,11.10
2022-11-07T01:00:42.763Z,11.10
2022-11-07T01:05:02.957Z,11.10
2022-11-07T01:09:07.539Z,11.00
2022-11-07T01:13:09.135Z,10.90
2022-11-07T01:17:10.721Z,10.90
2022-11-07T01:21:16.492Z,10.80
2022-11-07T01:25:18.441Z,10.60
2022-11-07T01:29:20.349Z,10.50
2022-11-07T01:33:21.964Z,10.50
2022-11-07T01:37:23.585Z,10.40
2022-11-07T01:41:29.408Z,10.30
2022-11-07T01:45:31.166Z,10.30
2022-11-07T01:49:37.730Z,10.20
2022-11-07T01:53:40.409Z,10.20
2022-11-07T01:57:55.677Z,10.10
2022-11-07T02:01:57.755Z,10.00
2022-11-07T02:06:03.999Z,10.00
2022-11-07T02:10:06.439Z,9.90
2022-11-07T02:14:08.097Z,9.70
2022-11-07T02:18:09.931Z,9.50
2022-11-07T02:22:50.692Z,9.50
2022-11-07T02:26:53.672Z,9.60
2022-11-07T02:30:55.323Z,9.60
2022-11-07T02:35:05.122Z,9.60
2022-11-07T02:39:07.278Z,9.60
2022-11-07T02:43:11.777Z,9.60
2022-11-07T02:47:13.863Z,9.60
2022-11-07T02:51:15.883Z,9.60
2022-11-07T02:55:17.690Z,9.60
2022-11-07T02:59:24.265Z,9.70
2022-11-07T03:03:29.506Z,9.70
2022-11-07T03:07:31.186Z,9.80
2022-11-07T03:11:32.909Z,9.90
2022-11-07T03:15:34.504Z,9.80
2022-11-07T03:19:36.200Z,9.70
2022-11-07T03:23:37.841Z,9.60
2022-11-07T03:27:47.462Z,9.50
2022-11-07T03:31:49.122Z,9.40
2022-11-07T03:35:50.758Z,9.40
2022-11-07T03:39:52.358Z,9.40
2022-11-07T03:43:54.098Z,9.40
2022-11-07T03:47:55.839Z,9.40
2022-11-07T03:51:57.615Z,9.30
2022-11-07T03:55:59.198Z,9.30
2022-11-07T04:00:00.822Z,9.30
2022-11-07T04:04:02.458Z,9.20
2022-11-07T04:08:04.513Z,9.20
2022-11-07T04:12:25.329Z,9.20
2022-11-07T04:16:50.174Z,9.20
2022-11-07T04:20:51.809Z,9.20
2022-11-07T04:24:53.431Z,9.10
2022-11-07T04:28:55.150Z,9.10
2022-11-07T04:32:58.963Z,9.00
2022-11-07T04:37:00.587Z,9.00
2022-11-07T04:41:04.120Z,8.90
2022-11-07T04:45:06.807Z,8.90
2022-11-07T04:49:08.430Z,8.80
2022-11-07T04:53:16.508Z,8.80
2022-11-07T04:57:18.337Z,8.70
2022-11-07T05:01:19.961Z,8.60
2022-11-07T05:05:21.700Z,8.60
2022-11-07T05:09:23.308Z,8.60
2022-11-07T05:13:25.656Z,8.60
2022-11-07T05:17:28.192Z,8.50
2022-11-07T05:21:29.966Z,8.50
2022-11-07T05:25:31.565Z,8.50
2022-11-07T05:29:33.789Z,8.40
2022-11-07T05:33:36.337Z,8.40
2022-11-07T05:37:37.965Z,8.40
2022-11-07T05:41:39.618Z,8.40
2022-11-07T05:45:41.637Z,8.40
2022-11-07T05:49:43.234Z,8.50
2022-11-07T05:53:44.936Z,8.40
2022-11-07T05:57:46.918Z,8.50
2022-11-07T06:01:51.281Z,8.70
2022-11-07T06:05:53.131Z,9.00
2022-11-07T06:09:54.739Z,9.10
2022-11-07T06:13:56.488Z,9.30
2022-11-07T06:18:03.319Z,9.50
2022-11-07T06:22:05.203Z,9.80
2022-11-07T06:26:06.870Z,9.80
2022-11-07T06:30:09.050Z,9.90
2022-11-07T06:34:10.688Z,10.00
2022-11-07T06:38:14.448Z,10.10
2022-11-07T06:42:16.043Z,10.20
2022-11-07T06:46:19.670Z,10.20
2022-11-07T06:50:21.300Z,10.20
2022-11-07T06:54:22.996Z,10.30
2022-11-07T06:58:24.617Z,10.40
2022-11-07T07:02:52.155Z,10.30
2022-11-07T07:06:47.839Z,10.50
2022-11-07T07:10:49.511Z,10.40
2022-11-07T07:14:51.125Z,10.50
2022-11-07T07:18:52.779Z,10.50
2022-11-07T07:23:00.189Z,10.70
2022-11-07T07:27:04.509Z,10.70
2022-11-07T07:31:15.205Z,10.80
2022-11-07T07:35:16.960Z,10.80
2022-11-07T07:39:18.594Z,10.90
2022-11-07T07:43:20.530Z,10.90
2022-11-07T07:47:22.257Z,10.90
2022-11-07T07:51:23.965Z,10.90
2022-11-07T07:55:25.742Z,10.90
2022-11-07T07:59:27.417Z,11.00
2022-11-07T08:03:39.679Z,11.10
2022-11-07T08:07:51.428Z,11.20
2022-11-07T08:11:53.038Z,11.40
2022-11-07T08:15:54.703Z,11.40
2022-11-07T08:19:56.306Z,11.40
2022-11-07T08:23:58.179Z,11.50
2022-11-07T08:28:00.157Z,11.60
2022-11-07T08:32:01.823Z,11.50
2022-11-07T08:36:05.059Z,11.60
2022-11-07T08:40:07.448Z,11.70
2022-11-07T08:44:09.639Z,11.80
2022-11-07T08:48:11.432Z,12.00
2022-11-07T08:52:13.041Z,12.10
2022-11-07T08:56:14.680Z,12.30
2022-11-07T09:00:16.617Z,12.50
2022-11-07T09:04:18.392Z,12.70
2022-11-07T09:08:20.113Z,12.90
2022-11-07T09:12:21.804Z,13.00
2022-11-07T09:16:24.182Z,13.20
2022-11-07T09:20:25.821Z,13.30
2022-11-07T09:24:27.506Z,13.40
2022-11-07T09:28:29.856Z,13.50
2022-11-07T09:32:44.396Z,13.50
2022-11-07T09:36:46.957Z,13.50
2022-11-07T09:41:42.821Z,13.50
2022-11-07T09:46:17.601Z,13.50
2022-11-07T09:50:27.136Z,13.50
2022-11-07T09:54:34.452Z,13.40
2022-11-07T09:58:35.969Z,13.30
2022-11-07T10:02:44.164Z,13.00
2022-11-07T10:06:58.729Z,12.90
2022-11-07T10:11:27.819Z,12.80
2022-11-07T10:15:51.954Z,12.80
2022-11-07T10:20:24.930Z,12.70
2022-11-07T10:24:35.474Z,12.70
2022-11-07T10:29:13.753Z,12.70
2022-11-07T10:33:34.182Z,12.60
2022-11-07T10:37:35.831Z,12.60
2022-11-07T10:41:38.185Z,12.70
2022-11-07T10:45:40.797Z,12.70
2022-11-07T10:49:57.615Z,12.90
2022-11-07T10:53:59.194Z,12.90
2022-11-07T10:58:06.757Z,13.00
2022-11-07T11:02:24.572Z,13.10
2022-11-07T11:06:31.061Z,13.40
2022-11-07T11:10:38.546Z,13.70
2022-11-07T11:14:40.531Z,13.90
2022-11-07T11:18:50.781Z,13.90
2022-11-07T11:22:53.092Z,14.10
2022-11-07T11:26:59.109Z,14.20
2022-11-07T11:31:06.465Z,14.30
2022-11-07T11:35:08.221Z,14.30
2022-11-07T11:39:26.151Z,14.20
2022-11-07T11:43:38.573Z,14.20
2022-11-07T11:47:44.268Z,14.20
2022-11-07T11:51:56.455Z,14.10
2022-11-07T11:56:06.805Z,14.00
2022-11-07T12:00:15.413Z,14.00
2022-11-07T12:04:31.887Z,14.00
2022-11-07T12:08:54.497Z,14.20
2022-11-07T12:13:23.253Z,14.40
2022-11-07T12:17:41.053Z,14.50
2022-11-07T12:22:03.300Z,14.70
2022-11-07T12:26:15.348Z,14.80
2022-11-07T12:30:33.955Z,15.00
2022-11-07T12:34:52.190Z,15.20
2022-11-07T12:39:04.366Z,15.30
2022-11-07T12:43:19.657Z,15.30
2022-11-07T12:47:30.239Z,15.30
2022-11-07T12:51:46.952Z,15.30
2022-11-07T12:56:00.308Z,15.30
2022-11-07T13:00:21.297Z,15.30
2022-11-07T13:04:38.647Z,15.10
2022-11-07T13:08:53.597Z,14.90
2022-11-07T13:13:23.646Z,14.90
2022-11-07T13:17:30.856Z,14.90
2022-11-07T13:21:39.644Z,14.90
2022-11-07T13:25:42.538Z,14.80
2022-11-07T13:29:45.091Z,14.80
2022-11-07T13:33:46.779Z,14.70
2022-11-07T13:37:54.117Z,14.70
2022-11-07T13:41:56.529Z,14.70
2022-11-07T13:46:04.628Z,14.70
2022-11-07T13:50:19.748Z,14.60
2022-11-07T13:54:33.896Z,14.60
2022-11-07T13:58:39.240Z,14.70
2022-11-07T14:02:59.020Z,14.70
2022-11-07T14:07:02.833Z,14.70
2022-11-07T14:11:13.825Z,14.70
2022-11-07T14:15:17.224Z,14.70
2022-11-07T14:19:27.248Z,14.80
2022-11-07T14:23:32.364Z,14.80
2022-11-07T14:27:35.587Z,14.80
2022-11-07T14:31:38.097Z,14.80
2022-11-07T14:35:44.883Z,14.80
2022-11-07T14:39:47.055Z,14.90
2022-11-07T14:43:50.802Z,14.90
2022-11-07T14:47:52.467Z,14.90
2022-11-07T14:51:55.541Z,14.90
2022-11-07T14:56:02.223Z,14.80
2022-11-07T15:00:13.160Z,14.80
2022-11-07T15:04:24.358Z,14.80
2022-11-07T15:08:34.502Z,14.70
2022-11-07T15:12:48.804Z,14.60
2022-11-07T15:16:51.681Z,14.60
2022-11-07T15:20:59.583Z,14.60
2022-11-07T15:25:01.494Z,14.60
2022-11-07T15:29:15.164Z,14.50
2022-11-07T15:33:18.202Z,14.30
2022-11-07T15:37:22.364Z,14.30
2022-11-07T15:41:24.013Z,14.30
2022-11-07T15:45:25.700Z,14.20
2022-11-07T15:49:28.874Z,14.20
2022-11-07T15:53:30.527Z,14.20
2022-11-07T15:57:33.783Z,14.10
2022-11-07T16:01:35.465Z,14.10
2022-11-07T16:05:37.137Z,14.10
2022-11-07T16:09:39.003Z,14.10
2022-11-07T16:13:40.681Z,14.10
2022-11-07T16:17:42.377Z,14.10
2022-11-07T16:21:44.038Z,14.10
2022-11-07T16:25:49.630Z,14.10
2022-11-07T16:29:51.309Z,14.20
2022-11-07T16:33:55.757Z,14.10
2022-11-07T16:37:59.054Z,14.10
2022-11-07T16:42:00.691Z,14.10
2022-11-07T16:46:02.533Z,14.20
2022-11-07T16:50:06.854Z,14.00
2022-11-07T16:54:08.759Z,14.10
2022-11-07T16:58:29.217Z,14.00
2022-11-07T17:02:31.091Z,14.00
2022-11-07T17:06:34.788Z,13.90
2022-11-07T17:10:36.402Z,14.00
2022-11-07T17:14:38.064Z,14.00
2022-11-07T17:18:39.830Z,14.00
2022-11-07T17:22:41.434Z,14.00
2022-11-07T17:26:43.073Z,14.10
2022-11-07T17:30:44.798Z,14.00
2022-11-07T17:34:59.297Z,14.00
2022-11-07T17:39:13.198Z,13.90
2022-11-07T17:43:14.762Z,14.00
2022-11-07T17:47:34.063Z,13.90
2022-11-07T17:51:36.064Z,13.90
2022-11-07T17:55:37.706Z,14.00
2022-11-07T17:59:44.750Z,13.90
2022-11-07T18:03:49.249Z,13.80
2022-11-07T18:07:50.873Z,13.90
2022-11-07T18:11:52.511Z,13.90
2022-11-07T18:15:55.310Z,13.90
2022-11-07T18:19:56.964Z,13.70
2022-11-07T18:23:58.645Z,13.90
2022-11-07T18:28:00.337Z,13.80
2022-11-07T18:32:02.075Z,13.70
2022-11-07T18:36:06.918Z,13.70
2022-11-07T18:40:09.382Z,13.80
2022-11-07T18:44:12.299Z,13.70
2022-11-07T18:48:14.295Z,13.70
2022-11-07T18:52:16.161Z,13.50
2022-11-07T18:56:18.353Z,13.70
2022-11-07T19:00:20.005Z,13.70
2022-11-07T19:04:21.626Z,13.60
2022-11-07T19:08:23.248Z,13.80
2022-11-07T19:12:26.696Z,13.70
2022-11-07T19:16:28.488Z,13.60
2022-11-07T19:20:30.111Z,13.60
2022-11-07T19:24:31.766Z,13.70
2022-11-07T19:28:35.000Z,13.70
2022-11-07T19:32:36.712Z,13.60
2022-11-07T19:36:38.389Z,13.60
2022-11-07T19:40:41.326Z,13.60
2022-11-07T19:44:48.406Z,13.60
2022-11-07T19:48:52.406Z,13.60
2022-11-07T19:52:54.019Z,13.70
2022-11-07T19:56:57.632Z,13.60
2022-11-07T20:00:59.703Z,13.50
2022-11-07T20:05:01.832Z,13.50
2022-11-07T20:09:06.800Z,13.50
2022-11-07T20:13:08.422Z,13.50
2022-11-07T20:17:10.153Z,13.40
2022-11-07T20:21:16.319Z,13.50
2022-11-07T20:25:17.961Z,13.50
2022-11-07T20:29:22.722Z,13.60
2022-11-07T20:33:25.008Z,13.60
2022-11-07T20:37:26.665Z,13.60
2022-11-07T20:41:28.697Z,13.50
2022-11-07T20:45:30.317Z,13.40
2022-11-07T20:49:31.911Z,13.50
2022-11-07T20:53:33.514Z,13.30
2022-11-07T20:57:35.229Z,13.20
2022-11-07T21:01:37.857Z,13.10
2022-11-07T21:05:39.625Z,13.00
2022-11-07T21:09:41.267Z,12.90
2022-11-07T21:13:48.060Z,12.90
2022-11-07T21:17:54.162Z,12.70
2022-11-07T21:21:56.043Z,12.60
2022-11-07T21:25:58.387Z,12.40
2022-11-07T21:30:00.051Z,12.50
2022-11-07T21:34:01.821Z,12.40
2022-11-07T21:38:03.494Z,12.40
2022-11-07T21:42:05.309Z,12.30
2022-11-07T21:46:18.817Z,12.20
2022-11-07T21:50:43.057Z,12.20
2022-11-07T21:54:42.098Z,12.10
2022-11-07T21:58:44.478Z,12.10
2022-11-07T22:02:46.122Z,12.00
2022-11-07T22:06:48.020Z,12.00
2022-11-07T22:10:50.270Z,11.90
2022-11-07T22:14:51.915Z,12.00
2022-11-07T22:18:53.618Z,12.00
2022-11-07T22:22:55.259Z,12.10
2022-11-07T22:26:57.127Z,12.00
2022-11-07T22:30:59.057Z,11.90
2022-11-07T22:35:04.877Z,11.80
2022-11-07T22:39:09.862Z,11.90
2022-11-07T22:43:11.566Z,11.70
2022-11-07T22:47:13.231Z,11.60
2022-11-07T22:51:20.863Z,11.70
2022-11-07T22:55:22.489Z,11.70
2022-11-07T22:59:24.181Z,11.60
2022-11-07T23:03:25.840Z,11.60
2022-11-07T23:07:27.495Z,11.60
2022-11-07T23:11:50.043Z,11.50
2022-11-07T23:15:51.701Z,11.40
2022-11-07T23:19:53.971Z,11.30
2022-11-07T23:23:57.476Z,11.30
2022-11-07T23:27:59.173Z,11.40
2022-11-07T23:32:00.809Z,11.50
2022-11-07T23:36:05.169Z,11.30
2022-11-07T23:40:07.386Z,11.30
2022-11-07T23:44:10.369Z,11.30
2022-11-07T23:48:33.991Z,11.20
2022-11-07T23:52:35.559Z,11.30
2022-11-07T23:56:37.313Z,11.20
